createdAt,value
2022-09-10T00:01:25.145Z,20.44
2022-09-10T00:03:54.540Z,20.42
2022-09-10T00:06:27.453Z,20.37
2022-09-10T00:08:57.183Z,20.34
2022-09-10T00:11:26.212Z,20.30
2022-09-10T00:13:52.943Z,20.28
2022-09-10T00:16:19.834Z,20.24
2022-09-10T00:18:47.469Z,20.22
2022-09-10T00:21:17.070Z,20.19
2022-09-10T00:23:45.526Z,20.16
2022-09-10T00:26:14.816Z,20.14
2022-09-10T00:28:42.341Z,20.13
2022-09-10T00:31:09.425Z,20.11
2022-09-10T00:33:36.203Z,20.10
2022-09-10T00:36:05.903Z,20.10
2022-09-10T00:38:32.630Z,20.09
2022-09-10T00:41:04.734Z,20.09
2022-09-10T00:43:52.429Z,20.10
2022-09-10T00:46:29.588Z,20.10
2022-09-10T00:48:58.424Z,20.09
2022-09-10T00:51:26.826Z,20.08
2022-09-10T00:53:54.045Z,20.10
2022-09-10T00:56:21.067Z,20.08
2022-09-10T00:58:48.524Z,20.08
2022-09-10T01:01:15.302Z,20.08
2022-09-10T01:03:43.812Z,20.08
2022-09-10T01:06:10.934Z,20.09
2022-09-10T01:08:37.966Z,20.10
2022-09-10T01:11:56.951Z,20.09
2022-09-10T01:14:59.214Z,20.07
2022-09-10T01:17:41.016Z,20.08
2022-09-10T01:20:35.866Z,20.09
2022-09-10T01:23:15.687Z,20.09
2022-09-10T01:25:59.413Z,20.09
2022-09-10T01:28:31.226Z,20.08
2022-09-10T01:31:04.500Z,20.08
2022-09-10T01:33:35.142Z,20.08
2022-09-10T01:36:06.093Z,20.09
2022-09-10T01:38:35.553Z,20.08
2022-09-10T01:41:02.273Z,20.08
2022-09-10T01:43:28.952Z,20.07
2022-09-10T01:46:10.837Z,20.07
2022-09-10T01:49:13.730Z,20.06
2022-09-10T01:52:01.032Z,20.05
2022-09-10T01:54:45.493Z,20.04
2022-09-10T01:57:50.200Z,20.03
2022-09-10T02:00:18.575Z,20.01
2022-09-10T02:02:52.568Z,20.02
2022-09-10T02:05:20.931Z,20.04
2022-09-10T02:07:49.007Z,20.03
2022-09-10T02:10:15.712Z,20.05
2022-09-10T02:12:42.421Z,20.05
2022-09-10T02:15:11.448Z,20.04
2022-09-10T02:17:38.635Z,20.06
2022-09-10T02:20:08.788Z,20.07
2022-09-10T02:22:38.314Z,20.07
2022-09-10T02:25:05.704Z,20.08
2022-09-10T02:27:32.888Z,20.10
2022-09-10T02:29:59.606Z,20.11
2022-09-10T02:32:26.316Z,20.12
2022-09-10T02:34:53.012Z,20.11
2022-09-10T02:37:20.149Z,20.11
2022-09-10T02:39:46.901Z,20.12
2022-09-10T02:42:16.901Z,20.11
2022-09-10T02:44:44.831Z,20.12
2022-09-10T02:47:11.797Z,20.11
2022-09-10T02:49:38.510Z,20.11
2022-09-10T02:52:05.445Z,20.11
2022-09-10T02:54:32.461Z,20.13
2022-09-10T02:56:59.154Z,20.13
2022-09-10T02:59:25.908Z,20.15
2022-09-10T03:01:54.043Z,20.13
2022-09-10T03:04:20.757Z,20.12
2022-09-10T03:06:49.231Z,20.13
2022-09-10T03:09:17.069Z,20.13
2022-09-10T03:11:43.756Z,20.11
2022-09-10T03:14:10.859Z,20.13
2022-09-10T03:16:37.562Z,20.13
2022-09-10T03:19:04.279Z,20.12
2022-09-10T03:21:30.981Z,20.12
2022-09-10T03:23:57.715Z,20.13
2022-09-10T03:26:25.310Z,20.12
2022-09-10T03:28:52.281Z,20.13
2022-09-10T03:31:19.091Z,20.13
2022-09-10T03:33:46.260Z,20.12
2022-09-10T03:36:15.870Z,20.13
2022-09-10T03:38:42.583Z,20.13
2022-09-10T03:41:09.381Z,20.12
2022-09-10T03:43:36.217Z,20.12
2022-09-10T03:46:03.202Z,20.12
2022-09-10T03:48:30.114Z,20.12
2022-09-10T03:50:56.973Z,20.10
2022-09-10T03:53:23.790Z,20.11
2022-09-10T03:55:51.770Z,20.12
2022-09-10T03:58:18.486Z,20.12
2022-09-10T04:00:46.358Z,20.11
2022-09-10T04:03:14.338Z,20.09
2022-09-10T04:05:43.586Z,20.08
2022-09-10T04:08:11.528Z,20.07
2022-09-10T04:10:39.123Z,20.05
2022-09-10T04:13:05.976Z,20.02
2022-09-10T04:15:32.964Z,19.98
2022-09-10T04:17:59.698Z,19.95
2022-09-10T04:20:26.658Z,19.94
2022-09-10T04:22:53.743Z,19.92
2022-09-10T04:25:20.605Z,19.92
2022-09-10T04:27:47.320Z,19.91
2022-09-10T04:30:14.022Z,19.90
2022-09-10T04:32:40.718Z,19.91
2022-09-10T04:35:08.158Z,19.90
2022-09-10T04:37:35.319Z,19.89
2022-09-10T04:40:02.224Z,19.90
2022-09-10T04:42:31.719Z,19.89
2022-09-10T04:44:59.124Z,19.89
2022-09-10T04:47:25.909Z,19.89
2022-09-10T04:49:52.621Z,19.87
2022-09-10T04:52:22.626Z,19.88
2022-09-10T04:54:49.499Z,19.87
2022-09-10T04:57:16.189Z,19.87
2022-09-10T04:59:43.324Z,19.88
2022-09-10T05:02:10.402Z,19.90
2022-09-10T05:04:37.138Z,19.91
2022-09-10T05:07:03.877Z,19.92
2022-09-10T05:09:31.466Z,19.92
2022-09-10T05:11:58.390Z,19.94
2022-09-10T05:14:29.284Z,19.95
2022-09-10T05:16:56.338Z,19.98
2022-09-10T05:19:23.042Z,20.02
2022-09-10T05:21:49.765Z,20.06
2022-09-10T05:24:16.773Z,20.09
2022-09-10T05:26:44.119Z,20.12
2022-09-10T05:29:11.390Z,20.14
2022-09-10T05:31:38.206Z,20.17
2022-09-10T05:34:05.039Z,20.18
2022-09-10T05:36:32.025Z,20.20
2022-09-10T05:39:00.200Z,20.22
2022-09-10T05:41:28.074Z,20.22
2022-09-10T05:43:54.968Z,20.24
2022-09-10T05:46:22.465Z,20.26
2022-09-10T05:48:49.188Z,20.29
2022-09-10T05:51:16.808Z,20.29
2022-09-10T05:53:43.532Z,20.30
2022-09-10T05:56:10.265Z,20.32
2022-09-10T05:58:37.021Z,20.30
2022-09-10T06:01:03.735Z,20.33
2022-09-10T06:03:30.456Z,20.32
2022-09-10T06:05:57.157Z,20.32
2022-09-10T06:08:23.879Z,20.33
2022-09-10T06:11:05.751Z,20.35
2022-09-10T06:13:37.740Z,20.36
2022-09-10T06:16:05.043Z,20.39
2022-09-10T06:18:33.063Z,20.41
2022-09-10T06:21:19.401Z,20.45
2022-09-10T06:23:46.522Z,20.46
2022-09-10T06:26:15.360Z,20.48
2022-09-10T06:28:42.072Z,20.50
2022-09-10T06:31:10.847Z,20.53
2022-09-10T06:33:37.595Z,20.59
2022-09-10T06:36:04.364Z,20.67
2022-09-10T06:38:33.579Z,20.73
2022-09-10T06:41:01.876Z,20.78
2022-09-10T06:43:32.576Z,20.81
2022-09-10T06:45:59.316Z,20.82
2022-09-10T06:48:47.647Z,20.81
2022-09-10T06:51:14.856Z,20.80
2022-09-10T06:53:42.497Z,20.79
2022-09-10T06:56:13.254Z,20.77
2022-09-10T06:58:40.128Z,20.76
2022-09-10T07:01:11.868Z,20.81
2022-09-10T07:03:38.586Z,20.86
2022-09-10T07:06:07.335Z,20.95
2022-09-10T07:08:34.125Z,21.07
2022-09-10T07:11:03.313Z,21.17
2022-09-10T07:13:30.344Z,21.23
2022-09-10T07:15:57.556Z,21.28
2022-09-10T07:18:25.547Z,21.31
2022-09-10T07:20:52.253Z,21.35
2022-09-10T07:23:21.006Z,21.43
2022-09-10T07:25:48.120Z,21.46
2022-09-10T07:28:18.038Z,21.49
2022-09-10T07:30:45.257Z,21.71
2022-09-10T07:33:12.015Z,22.03
2022-09-10T07:35:38.969Z,22.28
2022-09-10T07:38:06.888Z,22.66
2022-09-10T07:40:34.161Z,23.18
2022-09-10T07:43:00.945Z,23.76
2022-09-10T07:45:28.161Z,24.32
2022-09-10T07:47:54.963Z,24.81
2022-09-10T07:50:21.735Z,25.16
2022-09-10T07:52:49.129Z,25.41
2022-09-10T07:55:17.810Z,25.41
2022-09-10T07:57:45.476Z,25.33
2022-09-10T08:00:14.750Z,25.17
2022-09-10T08:02:42.786Z,25.05
2022-09-10T08:05:13.640Z,24.92
2022-09-10T08:07:41.182Z,24.73
2022-09-10T08:10:09.721Z,24.50
2022-09-10T08:12:37.457Z,24.30
2022-09-10T08:15:04.919Z,24.18
2022-09-10T08:17:31.962Z,24.05
2022-09-10T08:19:59.248Z,23.93
2022-09-10T08:22:26.047Z,23.94
2022-09-10T08:24:53.288Z,24.04
2022-09-10T08:27:20.114Z,24.25
2022-09-10T08:29:46.818Z,24.51
2022-09-10T08:32:13.542Z,24.67
2022-09-10T08:34:40.659Z,24.67
2022-09-10T08:37:07.777Z,24.64
2022-09-10T08:39:34.526Z,24.63
2022-09-10T08:42:22.428Z,24.70
2022-09-10T08:45:06.358Z,24.73
2022-09-10T08:47:44.485Z,24.68
2022-09-10T08:50:22.383Z,24.62
2022-09-10T08:52:52.756Z,24.57
2022-09-10T08:55:26.289Z,24.55
2022-09-10T08:58:02.378Z,24.59
2022-09-10T09:00:34.645Z,24.69
2022-09-10T09:03:11.796Z,24.81
2022-09-10T09:05:46.747Z,24.91
2022-09-10T09:08:16.678Z,24.99
2022-09-10T09:10:52.810Z,25.07
2022-09-10T09:13:47.458Z,25.18
2022-09-10T09:16:28.746Z,25.23
2022-09-10T09:19:18.637Z,25.25
2022-09-10T09:21:56.410Z,25.32
2022-09-10T09:24:45.607Z,25.40
2022-09-10T09:27:16.766Z,25.40
2022-09-10T09:30:03.200Z,25.35
2022-09-10T09:32:33.531Z,25.31
2022-09-10T09:35:11.114Z,25.25
2022-09-10T09:37:38.294Z,25.20
2022-09-10T09:40:26.341Z,25.10
2022-09-10T09:43:13.237Z,25.03
2022-09-10T09:45:43.967Z,24.95
2022-09-10T09:48:15.959Z,24.91
2022-09-10T09:50:45.508Z,24.87
2022-09-10T09:53:20.345Z,24.86
2022-09-10T09:55:50.156Z,24.87
2022-09-10T09:58:32.168Z,24.89
2022-09-10T10:01:04.972Z,24.91
2022-09-10T10:03:35.828Z,24.95
2022-09-10T10:06:03.097Z,24.99
2022-09-10T10:08:37.624Z,25.03
2022-09-10T10:11:04.693Z,25.06
2022-09-10T10:13:47.690Z,25.08
2022-09-10T10:16:22.050Z,25.10
2022-09-10T10:18:48.823Z,25.11
2022-09-10T10:21:29.705Z,25.12
2022-09-10T10:23:56.921Z,25.11
2022-09-10T10:26:32.052Z,25.09
2022-09-10T10:29:01.542Z,25.09
2022-09-10T10:31:40.304Z,25.08
2022-09-10T10:34:10.101Z,25.09
2022-09-10T10:36:53.239Z,25.15
2022-09-10T10:39:28.972Z,25.19
2022-09-10T10:42:13.809Z,25.22
2022-09-10T10:45:02.291Z,25.19
2022-09-10T10:47:38.773Z,25.16
2022-09-10T10:50:18.192Z,25.15
2022-09-10T10:52:58.158Z,25.15
2022-09-10T10:55:30.001Z,25.13
2022-09-10T10:58:27.633Z,25.15
2022-09-10T11:01:02.165Z,25.16
2022-09-10T11:03:36.753Z,25.20
2022-09-10T11:06:08.190Z,25.21
2022-09-10T11:09:01.190Z,25.23
2022-09-10T11:11:33.111Z,25.22
2022-09-10T11:14:21.029Z,25.15
2022-09-10T11:16:58.519Z,25.10
2022-09-10T11:20:05.343Z,25.06
2022-09-10T11:22:43.262Z,25.05
2022-09-10T11:25:30.540Z,25.07
2022-09-10T11:28:04.124Z,25.10
2022-09-10T11:30:32.093Z,25.15
2022-09-10T11:33:07.489Z,25.21
2022-09-10T11:35:39.961Z,25.25
2022-09-10T11:38:29.065Z,25.26
2022-09-10T11:54:14.922Z,25.33
2022-09-10T11:56:52.801Z,25.35
2022-09-10T12:00:04.281Z,25.45
2022-09-10T12:02:53.433Z,25.58
2022-09-10T12:05:29.126Z,25.71
2022-09-10T12:08:12.267Z,25.82
2022-09-10T12:10:44.956Z,25.88
2022-09-10T12:13:18.195Z,25.95
2022-09-10T12:15:55.983Z,26.03
2022-09-10T12:18:25.591Z,26.11
2022-09-10T12:20:54.985Z,26.19
2022-09-10T12:23:26.707Z,26.30
2022-09-10T12:25:58.638Z,26.43
2022-09-10T12:28:45.326Z,26.56
2022-09-10T12:31:17.297Z,26.60
2022-09-10T12:33:43.939Z,26.58
2022-09-10T12:36:25.764Z,26.52
2022-09-10T12:39:16.255Z,26.43
2022-09-10T12:41:42.870Z,26.35
2022-09-10T12:44:43.344Z,26.29
2022-09-10T12:47:16.107Z,26.25
2022-09-10T12:49:57.110Z,26.25
2022-09-10T12:53:01.665Z,26.31
2022-09-10T12:55:48.372Z,26.45
2022-09-10T12:58:24.003Z,26.59
2022-09-10T13:00:53.772Z,26.71
2022-09-10T13:03:21.579Z,26.76
2022-09-10T13:05:54.143Z,26.77
2022-09-10T13:08:25.573Z,26.80
2022-09-10T13:10:56.306Z,26.78
2022-09-10T13:13:34.077Z,26.76
2022-09-10T13:16:01.393Z,26.64
2022-09-10T13:18:33.896Z,26.53
2022-09-10T13:21:23.242Z,26.44
2022-09-10T13:23:54.214Z,26.39
2022-09-10T13:26:39.148Z,26.36
2022-09-10T13:29:13.693Z,26.34
2022-09-10T13:31:44.068Z,26.31
2022-09-10T13:34:17.805Z,26.29
2022-09-10T13:36:56.518Z,26.25
2022-09-10T13:39:42.059Z,26.21
2022-09-10T13:42:27.587Z,26.17
2022-09-10T13:45:33.469Z,26.12
2022-09-10T13:48:02.505Z,26.07
2022-09-10T13:50:39.835Z,26.04
2022-09-10T13:53:10.848Z,26.01
2022-09-10T13:55:37.900Z,25.97
2022-09-10T13:58:09.446Z,25.95
2022-09-10T14:00:48.341Z,25.92
2022-09-10T14:03:19.551Z,25.90
2022-09-10T14:05:48.706Z,25.90
2022-09-10T14:08:20.313Z,25.90
2022-09-10T14:11:00.811Z,25.89
2022-09-10T14:13:30.924Z,25.90
2022-09-10T14:15:59.532Z,25.90
2022-09-10T14:18:31.883Z,25.89
2022-09-10T14:20:59.702Z,25.88
2022-09-10T14:23:26.665Z,25.85
2022-09-10T14:26:23.192Z,25.84
2022-09-10T14:28:51.941Z,25.79
2022-09-10T14:31:24.696Z,25.79
2022-09-10T14:33:51.837Z,25.77
2022-09-10T14:36:22.994Z,25.76
2022-09-10T14:39:18.247Z,25.74
2022-09-10T14:41:45.221Z,25.70
2022-09-10T14:44:22.163Z,25.66
2022-09-10T14:46:59.268Z,25.64
2022-09-10T14:49:26.656Z,25.60
2022-09-10T14:51:53.876Z,25.58
2022-09-10T14:54:20.615Z,25.58
2022-09-10T14:56:47.703Z,25.58
2022-09-10T14:59:31.062Z,25.58
2022-09-10T15:01:59.087Z,25.58
2022-09-10T15:04:26.686Z,25.58
2022-09-10T15:06:54.505Z,25.63
2022-09-10T15:09:21.680Z,25.66
2022-09-10T15:11:55.356Z,25.69
2022-09-10T15:14:23.085Z,25.69
2022-09-10T15:16:52.799Z,25.67
2022-09-10T15:19:20.255Z,25.63
2022-09-10T15:21:47.167Z,25.59
2022-09-10T15:24:16.970Z,25.55
2022-09-10T15:26:43.804Z,25.51
2022-09-10T15:29:11.241Z,25.49
2022-09-10T15:31:38.468Z,25.50
2022-09-10T15:34:07.014Z,25.51
2022-09-10T15:36:35.304Z,25.48
2022-09-10T15:39:02.099Z,25.46
2022-09-10T15:41:29.745Z,25.45
2022-09-10T15:43:57.084Z,25.45
2022-09-10T15:46:24.655Z,25.45
2022-09-10T15:48:52.538Z,25.44
2022-09-10T15:51:21.477Z,25.41
2022-09-10T15:53:49.383Z,25.41
2022-09-10T15:56:16.611Z,25.39
2022-09-10T15:58:51.862Z,25.37
2022-09-10T16:01:18.803Z,25.36
2022-09-10T16:03:50.772Z,25.28
2022-09-10T16:06:19.475Z,25.22
2022-09-10T16:08:57.243Z,25.13
2022-09-10T16:11:24.956Z,25.03
2022-09-10T16:13:52.278Z,24.98
2022-09-10T16:16:23.752Z,24.93
2022-09-10T16:18:53.126Z,24.89
2022-09-10T16:21:26.078Z,24.81
2022-09-10T16:23:54.845Z,24.74
2022-09-10T16:26:27.191Z,24.74
2022-09-10T16:28:59.241Z,24.71
2022-09-10T16:31:36.810Z,24.69
2022-09-10T16:34:05.774Z,24.66
2022-09-10T16:36:34.470Z,24.66
2022-09-10T16:39:01.699Z,24.65
2022-09-10T16:41:29.227Z,24.63
2022-09-10T16:43:59.764Z,24.59
2022-09-10T16:46:27.391Z,24.58
2022-09-10T16:48:55.204Z,24.55
2022-09-10T16:51:24.433Z,24.56
2022-09-10T16:54:02.600Z,24.53
2022-09-10T16:56:34.398Z,24.51
2022-09-10T16:59:01.290Z,24.49
2022-09-10T17:01:28.384Z,24.48
2022-09-10T17:03:55.172Z,24.47
2022-09-10T17:06:26.893Z,24.45
2022-09-10T17:08:55.266Z,24.43
2022-09-10T17:11:22.735Z,24.41
2022-09-10T17:13:50.935Z,24.36
2022-09-10T17:16:20.631Z,24.36
2022-09-10T17:18:48.377Z,24.33
2022-09-10T17:21:15.116Z,24.31
2022-09-10T17:23:41.875Z,24.29
2022-09-10T17:26:09.025Z,24.28
2022-09-10T17:28:36.857Z,24.25
2022-09-10T17:31:04.334Z,24.23
2022-09-10T17:33:31.253Z,24.22
2022-09-10T17:36:02.810Z,24.21
2022-09-10T17:38:30.614Z,24.19
2022-09-10T17:41:00.078Z,24.18
2022-09-10T17:43:35.092Z,24.17
2022-09-10T17:46:10.381Z,24.12
2022-09-10T17:48:37.920Z,24.09
2022-09-10T17:51:06.124Z,24.06
2022-09-10T17:53:34.114Z,24.04
2022-09-10T17:56:05.309Z,23.99
2022-09-10T17:58:34.852Z,23.98
2022-09-10T18:01:04.223Z,23.95
2022-09-10T18:03:33.744Z,23.93
2022-09-10T18:06:08.730Z,23.90
2022-09-10T18:08:37.623Z,23.87
2022-09-10T18:11:06.676Z,23.84
2022-09-10T18:13:34.495Z,23.81
2022-09-10T18:16:06.250Z,23.77
2022-09-10T18:18:36.398Z,23.72
2022-09-10T18:21:20.963Z,23.66
2022-09-10T18:24:12.277Z,23.59
2022-09-10T18:26:42.591Z,23.50
2022-09-10T18:29:21.047Z,23.47
2022-09-10T18:31:50.914Z,23.43
2022-09-10T18:34:23.232Z,23.41
2022-09-10T18:36:55.459Z,23.38
2022-09-10T18:39:23.353Z,23.34
2022-09-10T18:41:50.126Z,23.32
2022-09-10T18:44:20.626Z,23.27
2022-09-10T18:46:48.512Z,23.24
2022-09-10T18:49:20.922Z,23.23
2022-09-10T18:51:48.803Z,23.19
2022-09-10T18:54:16.879Z,23.16
2022-09-10T18:56:48.638Z,23.13
2022-09-10T18:59:17.401Z,23.11
2022-09-10T19:01:45.561Z,23.09
2022-09-10T19:04:21.616Z,23.08
2022-09-10T19:06:49.190Z,23.05
2022-09-10T19:09:18.698Z,23.03
2022-09-10T19:11:46.992Z,23.01
2022-09-10T19:14:16.121Z,23.00
2022-09-10T19:16:43.014Z,22.99
2022-09-10T19:19:18.435Z,22.98
2022-09-10T19:21:49.557Z,22.98
2022-09-10T19:24:17.099Z,22.97
2022-09-10T19:26:44.653Z,22.96
2022-09-10T19:29:13.537Z,22.96
2022-09-10T19:31:41.066Z,22.95
2022-09-10T19:34:08.445Z,22.96
2022-09-10T19:36:35.793Z,22.95
2022-09-10T19:39:08.040Z,22.94
2022-09-10T19:41:35.968Z,22.92
2022-09-10T19:44:03.022Z,22.90
2022-09-10T19:46:30.415Z,22.88
2022-09-10T19:48:59.588Z,22.87
2022-09-10T19:51:28.546Z,22.86
2022-09-10T19:53:55.608Z,22.85
2022-09-10T19:56:25.077Z,22.85
2022-09-10T19:58:53.496Z,22.84
2022-09-10T20:01:23.394Z,22.82
2022-09-10T20:03:50.912Z,22.80
2022-09-10T20:06:19.433Z,22.78
2022-09-10T20:08:48.026Z,22.77
2022-09-10T20:11:16.800Z,22.74
2022-09-10T20:13:45.094Z,22.71
2022-09-10T20:16:12.468Z,22.67
2022-09-10T20:18:39.290Z,22.63
2022-09-10T20:21:15.995Z,22.61
2022-09-10T20:23:46.146Z,22.58
2022-09-10T20:26:30.438Z,22.55
2022-09-10T20:29:00.946Z,22.52
2022-09-10T20:31:29.192Z,22.50
2022-09-10T20:34:00.735Z,22.47
2022-09-10T20:36:28.421Z,22.45
2022-09-10T20:38:55.880Z,22.41
2022-09-10T20:41:23.378Z,22.39
2022-09-10T20:43:53.979Z,22.36
2022-09-10T20:46:22.188Z,22.31
2022-09-10T20:48:49.925Z,22.29
2022-09-10T20:51:17.905Z,22.25
2022-09-10T20:53:45.030Z,22.20
2022-09-10T20:56:14.172Z,22.16
2022-09-10T20:58:41.606Z,22.11
2022-09-10T21:01:16.458Z,22.08
2022-09-10T21:03:43.634Z,22.04
2022-09-10T21:06:11.588Z,22.00
2022-09-10T21:08:39.195Z,21.98
2022-09-10T21:11:08.865Z,21.94
2022-09-10T21:13:36.940Z,21.90
2022-09-10T21:16:07.246Z,21.88
2022-09-10T21:18:35.087Z,21.85
2022-09-10T21:21:12.501Z,21.82
2022-09-10T21:23:46.791Z,21.77
2022-09-10T21:26:14.599Z,21.73
2022-09-10T21:28:41.952Z,21.72
2022-09-10T21:31:09.757Z,21.68
2022-09-10T21:33:36.881Z,21.66
2022-09-10T21:36:18.110Z,21.62
2022-09-10T21:38:52.331Z,21.59
2022-09-10T21:41:23.552Z,21.56
2022-09-10T21:43:50.255Z,21.53
2022-09-10T21:46:17.027Z,21.51
2022-09-10T21:48:44.017Z,21.47
2022-09-10T21:51:15.578Z,21.43
2022-09-10T21:53:42.732Z,21.39
2022-09-10T21:56:12.511Z,21.36
2022-09-10T21:58:39.319Z,21.31
2022-09-10T22:01:18.191Z,21.28
2022-09-10T22:03:47.162Z,21.24
2022-09-10T22:06:24.800Z,21.21
2022-09-10T22:08:53.698Z,21.17
2022-09-10T22:11:23.883Z,21.15
2022-09-10T22:13:55.544Z,21.11
2022-09-10T22:16:25.049Z,21.05
2022-09-10T22:18:52.446Z,21.01
2022-09-10T22:21:19.583Z,20.97
2022-09-10T22:23:46.288Z,20.94
2022-09-10T22:26:15.135Z,20.90
2022-09-10T22:28:42.462Z,20.88
2022-09-10T22:31:13.466Z,20.87
2022-09-10T22:33:42.400Z,20.85
2022-09-10T22:36:20.603Z,20.83
2022-09-10T22:38:52.074Z,20.82
2022-09-10T22:41:19.571Z,20.79
2022-09-10T22:43:46.273Z,20.77
2022-09-10T22:46:13.095Z,20.76
2022-09-10T22:48:42.370Z,20.75
2022-09-10T22:51:30.524Z,20.73
2022-09-10T22:53:58.051Z,20.72
2022-09-10T22:56:28.719Z,20.71
2022-09-10T22:58:57.231Z,20.69
2022-09-10T23:01:30.887Z,20.69
2022-09-10T23:03:59.206Z,20.68
2022-09-10T23:06:28.397Z,20.66
2022-09-10T23:08:57.997Z,20.65
2022-09-10T23:11:30.097Z,20.65
2022-09-10T23:13:59.326Z,20.63
2022-09-10T23:16:28.932Z,20.62
2022-09-10T23:18:56.941Z,20.60
2022-09-10T23:21:24.959Z,20.58
2022-09-10T23:23:54.059Z,20.58
2022-09-10T23:26:21.595Z,20.53
2022-09-10T23:28:48.437Z,20.51
2022-09-10T23:31:20.545Z,20.48
2022-09-10T23:34:11.286Z,20.44
2022-09-10T23:36:40.315Z,20.42
2022-09-10T23:39:12.655Z,20.43
2022-09-10T23:41:39.450Z,20.41
2022-09-10T23:44:06.170Z,20.41
2022-09-10T23:46:33.074Z,20.39
2022-09-10T23:49:00.313Z,20.39
2022-09-10T23:51:27.090Z,20.38
2022-09-10T23:53:55.912Z,20.36
2022-09-10T23:56:25.416Z,20.36
2022-09-10T23:58:52.528Z,20.35
